sensor_id;sensor_type;location;lat;lon;timestamp;P1;durP1;ratioP1;P2;durP2;ratioP2
28958;SDS011;16066;0.000;0.000;2023-02-11T00:00:52;10.50;;;8.53;;
28958;SDS011;16066;0.000;0.000;2023-02-11T00:03:18;10.80;;;7.93;;
28958;SDS011;16066;0.000;0.000;2023-02-11T00:05:43;10.97;;;9.00;;
28958;SDS011;16066;0.000;0.000;2023-02-11T00:08:09;11.30;;;8.70;;
28958;SDS011;16066;0.000;0.000;2023-02-11T00:10:40;11.70;;;8.83;;
28958;SDS011;16066;0.000;0.000;2023-02-11T00:13:06;11.07;;;8.57;;
28958;SDS011;16066;0.000;0.000;2023-02-11T00:15:32;10.73;;;8.13;;
28958;SDS011;16066;0.000;0.000;2023-02-11T00:17:57;12.40;;;8.93;;
28958;SDS011;16066;0.000;0.000;2023-02-11T00:20:23;11.20;;;8.10;;
28958;SDS011;16066;0.000;0.000;2023-02-11T00:22:48;11.37;;;8.57;;
28958;SDS011;16066;0.000;0.000;2023-02-11T00:25:13;11.63;;;8.37;;
28958;SDS011;16066;0.000;0.000;2023-02-11T00:27:39;11.27;;;9.03;;
28958;SDS011;16066;0.000;0.000;2023-02-11T00:30:05;12.50;;;9.10;;
28958;SDS011;16066;0.000;0.000;2023-02-11T00:32:31;11.83;;;8.40;;
28958;SDS011;16066;0.000;0.000;2023-02-11T00:34:56;10.27;;;7.93;;
28958;SDS011;16066;0.000;0.000;2023-02-11T00:37:22;11.10;;;8.87;;
28958;SDS011;16066;0.000;0.000;2023-02-11T00:39:47;10.23;;;8.80;;
28958;SDS011;16066;0.000;0.000;2023-02-11T00:42:14;10.57;;;7.73;;
28958;SDS011;16066;0.000;0.000;2023-02-11T00:44:40;11.20;;;8.30;;
28958;SDS011;16066;0.000;0.000;2023-02-11T00:47:05;11.23;;;8.20;;
28958;SDS011;16066;0.000;0.000;2023-02-11T00:49:31;10.23;;;7.70;;
28958;SDS011;16066;0.000;0.000;2023-02-11T00:51:56;8.93;;;7.83;;
28958;SDS011;16066;0.000;0.000;2023-02-11T00:54:22;11.00;;;8.57;;
28958;SDS011;16066;0.000;0.000;2023-02-11T00:56:47;10.43;;;7.90;;
28958;SDS011;16066;0.000;0.000;2023-02-11T00:59:13;10.80;;;8.53;;
28958;SDS011;16066;0.000;0.000;2023-02-11T01:01:38;11.17;;;8.40;;
28958;SDS011;16066;0.000;0.000;2023-02-11T01:04:04;13.27;;;8.90;;
28958;SDS011;16066;0.000;0.000;2023-02-11T01:06:29;11.27;;;8.30;;
28958;SDS011;16066;0.000;0.000;2023-02-11T01:08:55;11.47;;;8.77;;
28958;SDS011;16066;0.000;0.000;2023-02-11T01:11:21;11.90;;;8.30;;
28958;SDS011;16066;0.000;0.000;2023-02-11T01:13:47;10.27;;;8.43;;
28958;SDS011;16066;0.000;0.000;2023-02-11T01:16:14;12.20;;;8.40;;
28958;SDS011;16066;0.000;0.000;2023-02-11T01:18:40;10.73;;;8.53;;
28958;SDS011;16066;0.000;0.000;2023-02-11T01:21:08;10.57;;;7.67;;
28958;SDS011;16066;0.000;0.000;2023-02-11T01:23:34;10.27;;;7.77;;
28958;SDS011;16066;0.000;0.000;2023-02-11T01:25:59;10.70;;;8.20;;
28958;SDS011;16066;0.000;0.000;2023-02-11T01:28:26;10.90;;;8.47;;
28958;SDS011;16066;0.000;0.000;2023-02-11T01:30:53;9.07;;;7.30;;
28958;SDS011;16066;0.000;0.000;2023-02-11T01:33:19;10.10;;;7.60;;
28958;SDS011;16066;0.000;0.000;2023-02-11T01:35:45;10.90;;;8.37;;
28958;SDS011;16066;0.000;0.000;2023-02-11T01:38:18;10.97;;;7.77;;
28958;SDS011;16066;0.000;0.000;2023-02-11T01:40:59;12.10;;;8.33;;
28958;SDS011;16066;0.000;0.000;2023-02-11T01:43:30;13.83;;;8.80;;
28958;SDS011;16066;0.000;0.000;2023-02-11T01:46:03;10.00;;;8.10;;
28958;SDS011;16066;0.000;0.000;2023-02-11T01:48:49;10.47;;;7.60;;
28958;SDS011;16066;0.000;0.000;2023-02-11T01:51:23;10.03;;;8.50;;
28958;SDS011;16066;0.000;0.000;2023-02-11T01:53:51;10.10;;;8.00;;
28958;SDS011;16066;0.000;0.000;2023-02-11T01:56:38;10.90;;;7.70;;
28958;SDS011;16066;0.000;0.000;2023-02-11T01:59:29;11.67;;;7.70;;
28958;SDS011;16066;0.000;0.000;2023-02-11T02:01:59;12.57;;;8.17;;
28958;SDS011;16066;0.000;0.000;2023-02-11T02:04:32;10.13;;;8.40;;
28958;SDS011;16066;0.000;0.000;2023-02-11T02:07:07;11.23;;;8.03;;
28958;SDS011;16066;0.000;0.000;2023-02-11T02:09:39;10.83;;;8.30;;
28958;SDS011;16066;0.000;0.000;2023-02-11T02:12:08;12.87;;;8.20;;
28958;SDS011;16066;0.000;0.000;2023-02-11T02:14:37;9.23;;;7.40;;
28958;SDS011;16066;0.000;0.000;2023-02-11T02:17:04;11.10;;;8.43;;
28958;SDS011;16066;0.000;0.000;2023-02-11T02:22:15;11.53;;;8.67;;
28958;SDS011;16066;0.000;0.000;2023-02-11T02:27:28;12.53;;;8.50;;
28958;SDS011;16066;0.000;0.000;2023-02-11T02:38:29;11.43;;;8.40;;
28958;SDS011;16066;0.000;0.000;2023-02-11T02:41:03;10.90;;;8.20;;
28958;SDS011;16066;0.000;0.000;2023-02-11T02:43:36;10.77;;;8.67;;
28958;SDS011;16066;0.000;0.000;2023-02-11T02:48:49;15.30;;;8.57;;
28958;SDS011;16066;0.000;0.000;2023-02-11T02:54:56;11.73;;;8.17;;
28958;SDS011;16066;0.000;0.000;2023-02-11T03:00:36;9.50;;;8.00;;
28958;SDS011;16066;0.000;0.000;2023-02-11T03:03:09;10.20;;;8.03;;
28958;SDS011;16066;0.000;0.000;2023-02-11T03:08:23;13.07;;;8.93;;
28958;SDS011;16066;0.000;0.000;2023-02-11T03:10:53;10.17;;;8.10;;
28958;SDS011;16066;0.000;0.000;2023-02-11T03:13:21;11.10;;;8.00;;
28958;SDS011;16066;0.000;0.000;2023-02-11T03:15:52;9.70;;;8.10;;
28958;SDS011;16066;0.000;0.000;2023-02-11T03:18:22;12.97;;;8.57;;
28958;SDS011;16066;0.000;0.000;2023-02-11T03:20:51;12.57;;;8.97;;
28958;SDS011;16066;0.000;0.000;2023-02-11T03:23:28;11.37;;;8.17;;
28958;SDS011;16066;0.000;0.000;2023-02-11T03:26:02;12.47;;;8.43;;
28958;SDS011;16066;0.000;0.000;2023-02-11T03:28:36;12.90;;;8.23;;
28958;SDS011;16066;0.000;0.000;2023-02-11T03:34:12;12.10;;;8.07;;
28958;SDS011;16066;0.000;0.000;2023-02-11T03:36:48;11.10;;;7.70;;
28958;SDS011;16066;0.000;0.000;2023-02-11T03:39:24;10.30;;;8.70;;
28958;SDS011;16066;0.000;0.000;2023-02-11T03:41:54;8.60;;;7.47;;
28958;SDS011;16066;0.000;0.000;2023-02-11T03:44:22;11.43;;;8.27;;
28958;SDS011;16066;0.000;0.000;2023-02-11T03:46:52;11.07;;;7.67;;
28958;SDS011;16066;0.000;0.000;2023-02-11T03:49:19;11.90;;;9.03;;
28958;SDS011;16066;0.000;0.000;2023-02-11T03:51:47;9.53;;;7.47;;
28958;SDS011;16066;0.000;0.000;2023-02-11T03:54:17;12.13;;;7.60;;
28958;SDS011;16066;0.000;0.000;2023-02-11T03:56:52;10.57;;;7.60;;
28958;SDS011;16066;0.000;0.000;2023-02-11T03:59:19;10.53;;;8.20;;
28958;SDS011;16066;0.000;0.000;2023-02-11T04:01:45;9.97;;;7.97;;
28958;SDS011;16066;0.000;0.000;2023-02-11T04:04:11;9.30;;;7.47;;
28958;SDS011;16066;0.000;0.000;2023-02-11T04:06:37;10.87;;;8.17;;
28958;SDS011;16066;0.000;0.000;2023-02-11T04:09:03;14.83;;;7.73;;
28958;SDS011;16066;0.000;0.000;2023-02-11T04:11:28;9.60;;;7.47;;
28958;SDS011;16066;0.000;0.000;2023-02-11T04:13:54;11.53;;;8.33;;
28958;SDS011;16066;0.000;0.000;2023-02-11T04:16:19;9.70;;;7.80;;
28958;SDS011;16066;0.000;0.000;2023-02-11T04:18:45;11.03;;;7.60;;
28958;SDS011;16066;0.000;0.000;2023-02-11T04:21:10;10.10;;;7.80;;
28958;SDS011;16066;0.000;0.000;2023-02-11T04:23:36;12.20;;;9.37;;
28958;SDS011;16066;0.000;0.000;2023-02-11T04:26:01;12.37;;;9.20;;
28958;SDS011;16066;0.000;0.000;2023-02-11T04:28:27;11.80;;;8.97;;
28958;SDS011;16066;0.000;0.000;2023-02-11T04:30:54;9.87;;;7.10;;
28958;SDS011;16066;0.000;0.000;2023-02-11T04:33:20;10.90;;;8.00;;
28958;SDS011;16066;0.000;0.000;2023-02-11T04:35:46;11.53;;;8.50;;
28958;SDS011;16066;0.000;0.000;2023-02-11T04:38:12;11.10;;;8.00;;
28958;SDS011;16066;0.000;0.000;2023-02-11T04:40:37;9.53;;;7.67;;
28958;SDS011;16066;0.000;0.000;2023-02-11T04:43:04;8.97;;;6.73;;
28958;SDS011;16066;0.000;0.000;2023-02-11T04:45:30;10.23;;;7.20;;
28958;SDS011;16066;0.000;0.000;2023-02-11T04:47:55;10.17;;;7.70;;
28958;SDS011;16066;0.000;0.000;2023-02-11T04:50:21;12.63;;;7.60;;
28958;SDS011;16066;0.000;0.000;2023-02-11T04:52:46;10.10;;;7.43;;
28958;SDS011;16066;0.000;0.000;2023-02-11T04:55:12;8.63;;;7.30;;
28958;SDS011;16066;0.000;0.000;2023-02-11T04:57:37;10.10;;;7.77;;
28958;SDS011;16066;0.000;0.000;2023-02-11T05:00:03;12.07;;;8.10;;
28958;SDS011;16066;0.000;0.000;2023-02-11T05:02:30;10.90;;;7.90;;
28958;SDS011;16066;0.000;0.000;2023-02-11T05:04:56;9.53;;;7.53;;
28958;SDS011;16066;0.000;0.000;2023-02-11T05:07:21;9.40;;;6.43;;
28958;SDS011;16066;0.000;0.000;2023-02-11T05:09:47;10.37;;;8.00;;
28958;SDS011;16066;0.000;0.000;2023-02-11T05:12:12;11.03;;;7.67;;
28958;SDS011;16066;0.000;0.000;2023-02-11T05:14:38;9.63;;;7.53;;
28958;SDS011;16066;0.000;0.000;2023-02-11T05:17:03;11.00;;;8.03;;
28958;SDS011;16066;0.000;0.000;2023-02-11T05:19:29;10.20;;;7.57;;
28958;SDS011;16066;0.000;0.000;2023-02-11T05:21:55;10.50;;;7.53;;
28958;SDS011;16066;0.000;0.000;2023-02-11T05:24:21;13.93;;;8.20;;
28958;SDS011;16066;0.000;0.000;2023-02-11T05:26:47;10.43;;;7.40;;
28958;SDS011;16066;0.000;0.000;2023-02-11T05:29:12;9.23;;;6.93;;
28958;SDS011;16066;0.000;0.000;2023-02-11T05:31:38;12.73;;;7.87;;
28958;SDS011;16066;0.000;0.000;2023-02-11T05:34:03;9.03;;;7.03;;
28958;SDS011;16066;0.000;0.000;2023-02-11T05:36:29;9.97;;;7.67;;
28958;SDS011;16066;0.000;0.000;2023-02-11T05:38:55;10.93;;;8.97;;
28958;SDS011;16066;0.000;0.000;2023-02-11T05:41:20;12.27;;;8.17;;
28958;SDS011;16066;0.000;0.000;2023-02-11T05:43:49;11.23;;;7.30;;
28958;SDS011;16066;0.000;0.000;2023-02-11T05:46:17;11.13;;;7.77;;
28958;SDS011;16066;0.000;0.000;2023-02-11T05:48:43;10.37;;;8.00;;
28958;SDS011;16066;0.000;0.000;2023-02-11T05:51:09;9.40;;;7.40;;
28958;SDS011;16066;0.000;0.000;2023-02-11T05:53:34;11.80;;;7.50;;
28958;SDS011;16066;0.000;0.000;2023-02-11T05:56:00;9.57;;;6.63;;
28958;SDS011;16066;0.000;0.000;2023-02-11T05:58:26;12.97;;;8.00;;
28958;SDS011;16066;0.000;0.000;2023-02-11T06:00:52;9.00;;;6.97;;
28958;SDS011;16066;0.000;0.000;2023-02-11T06:03:17;12.97;;;7.90;;
28958;SDS011;16066;0.000;0.000;2023-02-11T06:05:43;10.70;;;7.53;;
28958;SDS011;16066;0.000;0.000;2023-02-11T06:08:09;8.73;;;6.90;;
28958;SDS011;16066;0.000;0.000;2023-02-11T06:10:35;9.50;;;7.50;;
28958;SDS011;16066;0.000;0.000;2023-02-11T06:13:01;9.13;;;7.10;;
28958;SDS011;16066;0.000;0.000;2023-02-11T06:15:27;14.37;;;8.20;;
28958;SDS011;16066;0.000;0.000;2023-02-11T06:17:52;9.07;;;7.30;;
28958;SDS011;16066;0.000;0.000;2023-02-11T06:20:18;9.07;;;6.97;;
28958;SDS011;16066;0.000;0.000;2023-02-11T06:22:43;9.47;;;7.30;;
28958;SDS011;16066;0.000;0.000;2023-02-11T06:25:09;11.10;;;8.00;;
28958;SDS011;16066;0.000;0.000;2023-02-11T06:27:35;9.53;;;7.50;;
28958;SDS011;16066;0.000;0.000;2023-02-11T06:30:02;10.37;;;8.07;;
28958;SDS011;16066;0.000;0.000;2023-02-11T06:32:29;10.50;;;7.70;;
28958;SDS011;16066;0.000;0.000;2023-02-11T06:34:54;9.20;;;6.77;;
28958;SDS011;16066;0.000;0.000;2023-02-11T06:37:20;9.90;;;7.93;;
28958;SDS011;16066;0.000;0.000;2023-02-11T06:39:45;8.50;;;7.50;;
28958;SDS011;16066;0.000;0.000;2023-02-11T06:42:11;10.43;;;6.70;;
28958;SDS011;16066;0.000;0.000;2023-02-11T06:44:36;9.53;;;7.80;;
28958;SDS011;16066;0.000;0.000;2023-02-11T06:47:02;11.33;;;7.60;;
28958;SDS011;16066;0.000;0.000;2023-02-11T06:49:28;11.47;;;7.67;;
28958;SDS011;16066;0.000;0.000;2023-02-11T06:51:53;12.23;;;7.30;;
28958;SDS011;16066;0.000;0.000;2023-02-11T06:54:19;10.23;;;7.87;;
28958;SDS011;16066;0.000;0.000;2023-02-11T06:56:44;9.97;;;7.73;;
28958;SDS011;16066;0.000;0.000;2023-02-11T06:59:17;8.93;;;7.07;;
28958;SDS011;16066;0.000;0.000;2023-02-11T07:01:44;9.83;;;7.70;;
28958;SDS011;16066;0.000;0.000;2023-02-11T07:04:10;9.40;;;7.10;;
28958;SDS011;16066;0.000;0.000;2023-02-11T07:06:36;10.40;;;7.23;;
28958;SDS011;16066;0.000;0.000;2023-02-11T07:09:02;10.70;;;8.07;;
28958;SDS011;16066;0.000;0.000;2023-02-11T07:11:29;9.17;;;7.60;;
28958;SDS011;16066;0.000;0.000;2023-02-11T07:13:58;10.83;;;7.43;;
28958;SDS011;16066;0.000;0.000;2023-02-11T07:16:25;9.50;;;7.43;;
28958;SDS011;16066;0.000;0.000;2023-02-11T07:18:51;10.33;;;7.43;;
28958;SDS011;16066;0.000;0.000;2023-02-11T07:21:18;9.27;;;7.60;;
28958;SDS011;16066;0.000;0.000;2023-02-11T07:23:45;10.57;;;7.10;;
28958;SDS011;16066;0.000;0.000;2023-02-11T07:26:13;10.10;;;8.17;;
28958;SDS011;16066;0.000;0.000;2023-02-11T07:28:40;10.40;;;8.17;;
28958;SDS011;16066;0.000;0.000;2023-02-11T07:31:07;11.00;;;8.00;;
28958;SDS011;16066;0.000;0.000;2023-02-11T07:33:37;8.87;;;7.63;;
28958;SDS011;16066;0.000;0.000;2023-02-11T07:36:04;10.83;;;7.63;;
28958;SDS011;16066;0.000;0.000;2023-02-11T07:38:32;54.93;;;10.33;;
28958;SDS011;16066;0.000;0.000;2023-02-11T07:41:02;10.40;;;7.03;;
28958;SDS011;16066;0.000;0.000;2023-02-11T07:43:29;10.73;;;7.03;;
28958;SDS011;16066;0.000;0.000;2023-02-11T07:45:55;8.57;;;7.07;;
28958;SDS011;16066;0.000;0.000;2023-02-11T07:48:21;7.40;;;6.40;;
28958;SDS011;16066;0.000;0.000;2023-02-11T07:50:46;12.37;;;7.53;;
28958;SDS011;16066;0.000;0.000;2023-02-11T07:53:12;11.97;;;6.93;;
28958;SDS011;16066;0.000;0.000;2023-02-11T07:55:37;12.13;;;6.60;;
28958;SDS011;16066;0.000;0.000;2023-02-11T07:58:03;7.20;;;5.90;;
28958;SDS011;16066;0.000;0.000;2023-02-11T08:00:28;9.63;;;5.63;;
28958;SDS011;16066;0.000;0.000;2023-02-11T08:02:55;8.63;;;6.20;;
28958;SDS011;16066;0.000;0.000;2023-02-11T08:05:21;8.50;;;6.10;;
28958;SDS011;16066;0.000;0.000;2023-02-11T08:07:49;9.07;;;6.10;;
28958;SDS011;16066;0.000;0.000;2023-02-11T08:10:16;7.67;;;5.80;;
28958;SDS011;16066;0.000;0.000;2023-02-11T08:12:41;10.47;;;5.50;;
28958;SDS011;16066;0.000;0.000;2023-02-11T08:15:07;7.20;;;5.70;;
28958;SDS011;16066;0.000;0.000;2023-02-11T08:17:36;8.20;;;6.30;;
28958;SDS011;16066;0.000;0.000;2023-02-11T08:20:02;6.93;;;5.60;;
28958;SDS011;16066;0.000;0.000;2023-02-11T08:22:32;7.80;;;5.50;;
28958;SDS011;16066;0.000;0.000;2023-02-11T08:24:58;9.63;;;6.03;;
28958;SDS011;16066;0.000;0.000;2023-02-11T08:27:24;8.03;;;5.77;;
28958;SDS011;16066;0.000;0.000;2023-02-11T08:29:51;8.67;;;5.77;;
28958;SDS011;16066;0.000;0.000;2023-02-11T08:32:17;11.40;;;7.10;;
28958;SDS011;16066;0.000;0.000;2023-02-11T08:34:43;9.53;;;6.53;;
28958;SDS011;16066;0.000;0.000;2023-02-11T08:37:08;8.60;;;6.40;;
28958;SDS011;16066;0.000;0.000;2023-02-11T08:39:34;10.43;;;6.30;;
28958;SDS011;16066;0.000;0.000;2023-02-11T08:41:59;9.77;;;5.90;;
28958;SDS011;16066;0.000;0.000;2023-02-11T08:44:25;8.53;;;6.27;;
28958;SDS011;16066;0.000;0.000;2023-02-11T08:46:50;7.30;;;5.70;;
28958;SDS011;16066;0.000;0.000;2023-02-11T08:49:16;9.17;;;6.80;;
28958;SDS011;16066;0.000;0.000;2023-02-11T08:51:43;14.63;;;6.73;;
28958;SDS011;16066;0.000;0.000;2023-02-11T08:54:09;8.87;;;5.73;;
28958;SDS011;16066;0.000;0.000;2023-02-11T08:56:35;9.90;;;6.43;;
28958;SDS011;16066;0.000;0.000;2023-02-11T08:59:01;7.63;;;6.50;;
28958;SDS011;16066;0.000;0.000;2023-02-11T09:01:28;7.97;;;6.23;;
28958;SDS011;16066;0.000;0.000;2023-02-11T09:03:55;10.87;;;7.13;;
28958;SDS011;16066;0.000;0.000;2023-02-11T09:06:21;8.80;;;6.23;;
28958;SDS011;16066;0.000;0.000;2023-02-11T09:08:49;8.40;;;6.53;;
28958;SDS011;16066;0.000;0.000;2023-02-11T09:11:17;9.53;;;6.50;;
28958;SDS011;16066;0.000;0.000;2023-02-11T09:13:45;8.97;;;6.40;;
28958;SDS011;16066;0.000;0.000;2023-02-11T09:16:18;9.27;;;6.90;;
28958;SDS011;16066;0.000;0.000;2023-02-11T09:18:45;13.00;;;6.53;;
28958;SDS011;16066;0.000;0.000;2023-02-11T09:21:12;10.47;;;6.80;;
28958;SDS011;16066;0.000;0.000;2023-02-11T09:23:38;12.00;;;7.43;;
28958;SDS011;16066;0.000;0.000;2023-02-11T09:26:06;10.03;;;7.27;;
28958;SDS011;16066;0.000;0.000;2023-02-11T09:28:33;9.93;;;7.00;;
28958;SDS011;16066;0.000;0.000;2023-02-11T09:30:58;10.43;;;6.87;;
28958;SDS011;16066;0.000;0.000;2023-02-11T09:33:32;10.90;;;7.30;;
28958;SDS011;16066;0.000;0.000;2023-02-11T09:36:04;9.40;;;6.70;;
28958;SDS011;16066;0.000;0.000;2023-02-11T09:38:31;10.53;;;6.83;;
28958;SDS011;16066;0.000;0.000;2023-02-11T09:40:57;9.67;;;6.83;;
28958;SDS011;16066;0.000;0.000;2023-02-11T09:43:30;10.20;;;6.70;;
28958;SDS011;16066;0.000;0.000;2023-02-11T09:46:01;12.63;;;7.70;;
28958;SDS011;16066;0.000;0.000;2023-02-11T09:48:27;9.17;;;6.37;;
28958;SDS011;16066;0.000;0.000;2023-02-11T09:51:02;8.23;;;6.10;;
28958;SDS011;16066;0.000;0.000;2023-02-11T09:53:30;8.70;;;6.53;;
28958;SDS011;16066;0.000;0.000;2023-02-11T09:56:01;12.60;;;6.70;;
28958;SDS011;16066;0.000;0.000;2023-02-11T09:58:35;9.53;;;6.10;;
28958;SDS011;16066;0.000;0.000;2023-02-11T10:01:20;11.93;;;6.10;;
28958;SDS011;16066;0.000;0.000;2023-02-11T10:06:55;9.63;;;6.30;;
28958;SDS011;16066;0.000;0.000;2023-02-11T10:11:52;12.83;;;7.07;;
28958;SDS011;16066;0.000;0.000;2023-02-11T10:17:31;13.00;;;6.27;;
28958;SDS011;16066;0.000;0.000;2023-02-11T10:20:32;9.63;;;6.50;;
28958;SDS011;16066;0.000;0.000;2023-02-11T10:23:12;13.57;;;6.73;;
28958;SDS011;16066;0.000;0.000;2023-02-11T10:25:50;9.57;;;6.40;;
28958;SDS011;16066;0.000;0.000;2023-02-11T10:28:20;7.33;;;5.87;;
28958;SDS011;16066;0.000;0.000;2023-02-11T10:36:17;31.93;;;17.10;;
28958;SDS011;16066;0.000;0.000;2023-02-11T10:38:43;42.27;;;29.47;;
28958;SDS011;16066;0.000;0.000;2023-02-11T10:41:09;68.77;;;41.63;;
28958;SDS011;16066;0.000;0.000;2023-02-11T10:43:41;73.13;;;51.57;;
28958;SDS011;16066;0.000;0.000;2023-02-11T10:46:09;82.80;;;60.07;;
28958;SDS011;16066;0.000;0.000;2023-02-11T10:51:26;114.07;;;74.77;;
28958;SDS011;16066;0.000;0.000;2023-02-11T10:56:33;106.43;;;69.13;;
28958;SDS011;16066;0.000;0.000;2023-02-11T10:59:04;109.90;;;69.60;;
28958;SDS011;16066;0.000;0.000;2023-02-11T11:01:38;108.20;;;69.90;;
28958;SDS011;16066;0.000;0.000;2023-02-11T11:04:05;102.80;;;71.10;;
28958;SDS011;16066;0.000;0.000;2023-02-11T11:06:50;109.17;;;70.97;;
28958;SDS011;16066;0.000;0.000;2023-02-11T11:09:28;107.30;;;67.03;;
28958;SDS011;16066;0.000;0.000;2023-02-11T11:11:55;102.30;;;66.33;;
28958;SDS011;16066;0.000;0.000;2023-02-11T11:14:20;95.63;;;61.83;;
28958;SDS011;16066;0.000;0.000;2023-02-11T11:16:52;94.90;;;61.90;;
28958;SDS011;16066;0.000;0.000;2023-02-11T11:19:20;103.47;;;61.37;;
28958;SDS011;16066;0.000;0.000;2023-02-11T11:21:48;91.77;;;56.30;;
28958;SDS011;16066;0.000;0.000;2023-02-11T11:24:17;86.60;;;56.57;;
28958;SDS011;16066;0.000;0.000;2023-02-11T11:26:50;85.50;;;52.73;;
28958;SDS011;16066;0.000;0.000;2023-02-11T11:29:19;68.97;;;49.93;;
28958;SDS011;16066;0.000;0.000;2023-02-11T11:31:58;69.93;;;50.80;;
28958;SDS011;16066;0.000;0.000;2023-02-11T11:34:32;72.47;;;47.77;;
28958;SDS011;16066;0.000;0.000;2023-02-11T11:37:08;64.00;;;44.80;;
28958;SDS011;16066;0.000;0.000;2023-02-11T11:39:37;58.70;;;43.63;;
28958;SDS011;16066;0.000;0.000;2023-02-11T11:42:05;55.40;;;41.70;;
28958;SDS011;16066;0.000;0.000;2023-02-11T11:45:03;58.10;;;38.60;;
28958;SDS011;16066;0.000;0.000;2023-02-11T11:53:10;56.53;;;39.00;;
28958;SDS011;16066;0.000;0.000;2023-02-11T11:55:59;51.50;;;34.60;;
28958;SDS011;16066;0.000;0.000;2023-02-11T11:58:29;54.20;;;35.20;;
28958;SDS011;16066;0.000;0.000;2023-02-11T12:04:26;47.87;;;32.90;;
28958;SDS011;16066;0.000;0.000;2023-02-11T12:14:58;42.33;;;30.10;;
28958;SDS011;16066;0.000;0.000;2023-02-11T12:17:49;42.53;;;29.57;;
28958;SDS011;16066;0.000;0.000;2023-02-11T12:20:37;38.97;;;30.60;;
28958;SDS011;16066;0.000;0.000;2023-02-11T12:23:30;43.70;;;30.13;;
28958;SDS011;16066;0.000;0.000;2023-02-11T12:29:03;34.30;;;26.83;;
28958;SDS011;16066;0.000;0.000;2023-02-11T12:31:38;35.63;;;26.73;;
28958;SDS011;16066;0.000;0.000;2023-02-11T12:37:30;34.37;;;25.80;;
28958;SDS011;16066;0.000;0.000;2023-02-11T12:45:33;37.33;;;24.87;;
28958;SDS011;16066;0.000;0.000;2023-02-11T12:48:06;30.33;;;21.90;;
28958;SDS011;16066;0.000;0.000;2023-02-11T12:56:22;30.90;;;23.27;;
28958;SDS011;16066;0.000;0.000;2023-02-11T12:58:54;37.93;;;22.57;;
28958;SDS011;16066;0.000;0.000;2023-02-11T13:01:25;29.47;;;21.37;;
28958;SDS011;16066;0.000;0.000;2023-02-11T13:03:54;30.77;;;20.90;;
28958;SDS011;16066;0.000;0.000;2023-02-11T13:06:48;29.80;;;20.10;;
28958;SDS011;16066;0.000;0.000;2023-02-11T13:09:23;33.07;;;21.13;;
28958;SDS011;16066;0.000;0.000;2023-02-11T13:11:53;30.80;;;20.37;;
28958;SDS011;16066;0.000;0.000;2023-02-11T13:14:31;30.60;;;20.20;;
28958;SDS011;16066;0.000;0.000;2023-02-11T13:17:00;27.73;;;19.57;;
28958;SDS011;16066;0.000;0.000;2023-02-11T13:19:42;25.60;;;18.43;;
28958;SDS011;16066;0.000;0.000;2023-02-11T13:27:31;27.10;;;18.50;;
28958;SDS011;16066;0.000;0.000;2023-02-11T13:38:03;29.03;;;18.47;;
28958;SDS011;16066;0.000;0.000;2023-02-11T13:40:41;24.80;;;17.53;;
28958;SDS011;16066;0.000;0.000;2023-02-11T13:43:20;28.93;;;17.50;;
28958;SDS011;16066;0.000;0.000;2023-02-11T13:45:48;23.13;;;17.10;;
28958;SDS011;16066;0.000;0.000;2023-02-11T13:48:22;27.13;;;17.70;;
28958;SDS011;16066;0.000;0.000;2023-02-11T13:50:57;24.20;;;17.30;;
28958;SDS011;16066;0.000;0.000;2023-02-11T13:53:26;25.10;;;17.57;;
28958;SDS011;16066;0.000;0.000;2023-02-11T13:55:53;23.17;;;17.33;;
28958;SDS011;16066;0.000;0.000;2023-02-11T13:58:34;27.73;;;17.83;;
28958;SDS011;16066;0.000;0.000;2023-02-11T14:01:04;22.30;;;16.20;;
28958;SDS011;16066;0.000;0.000;2023-02-11T14:03:34;27.13;;;17.53;;
28958;SDS011;16066;0.000;0.000;2023-02-11T14:06:24;29.70;;;17.30;;
28958;SDS011;16066;0.000;0.000;2023-02-11T14:14:22;26.13;;;18.20;;
28958;SDS011;16066;0.000;0.000;2023-02-11T14:19:35;26.57;;;18.20;;
28958;SDS011;16066;0.000;0.000;2023-02-11T14:32:08;464.63;;;214.40;;
28958;SDS011;16066;0.000;0.000;2023-02-11T14:39:59;433.27;;;202.27;;
28958;SDS011;16066;0.000;0.000;2023-02-11T14:42:33;420.20;;;191.43;;
28958;SDS011;16066;0.000;0.000;2023-02-11T14:45:03;430.53;;;182.43;;
28958;SDS011;16066;0.000;0.000;2023-02-11T14:47:50;392.13;;;166.90;;
28958;SDS011;16066;0.000;0.000;2023-02-11T14:50:26;351.57;;;159.93;;
28958;SDS011;16066;0.000;0.000;2023-02-11T14:53:04;336.10;;;150.73;;
28958;SDS011;16066;0.000;0.000;2023-02-11T14:55:38;339.80;;;151.37;;
28958;SDS011;16066;0.000;0.000;2023-02-11T14:58:13;320.87;;;147.10;;
28958;SDS011;16066;0.000;0.000;2023-02-11T15:03:56;267.70;;;131.10;;
28958;SDS011;16066;0.000;0.000;2023-02-11T15:06:27;279.17;;;129.23;;
28958;SDS011;16066;0.000;0.000;2023-02-11T15:09:12;273.80;;;124.83;;
28958;SDS011;16066;0.000;0.000;2023-02-11T15:11:44;257.10;;;126.20;;
28958;SDS011;16066;0.000;0.000;2023-02-11T15:14:20;247.40;;;121.13;;
28958;SDS011;16066;0.000;0.000;2023-02-11T15:16:47;249.47;;;119.43;;
28958;SDS011;16066;0.000;0.000;2023-02-11T15:19:17;232.93;;;115.57;;
28958;SDS011;16066;0.000;0.000;2023-02-11T15:21:47;233.23;;;114.27;;
28958;SDS011;16066;0.000;0.000;2023-02-11T15:27:10;214.23;;;104.67;;
28958;SDS011;16066;0.000;0.000;2023-02-11T15:29:43;205.03;;;100.70;;
28958;SDS011;16066;0.000;0.000;2023-02-11T15:34:45;192.10;;;92.00;;
28958;SDS011;16066;0.000;0.000;2023-02-11T15:37:24;171.90;;;84.07;;
28958;SDS011;16066;0.000;0.000;2023-02-11T15:39:51;155.27;;;76.30;;
28958;SDS011;16066;0.000;0.000;2023-02-11T15:42:22;141.53;;;72.23;;
28958;SDS011;16066;0.000;0.000;2023-02-11T15:45:10;131.93;;;68.47;;
28958;SDS011;16066;0.000;0.000;2023-02-11T15:47:36;137.13;;;69.40;;
28958;SDS011;16066;0.000;0.000;2023-02-11T15:50:03;139.03;;;65.40;;
28958;SDS011;16066;0.000;0.000;2023-02-11T15:52:29;122.50;;;62.37;;
28958;SDS011;16066;0.000;0.000;2023-02-11T15:54:56;126.37;;;59.83;;
28958;SDS011;16066;0.000;0.000;2023-02-11T15:57:25;130.50;;;61.60;;
28958;SDS011;16066;0.000;0.000;2023-02-11T15:59:51;111.17;;;59.33;;
28958;SDS011;16066;0.000;0.000;2023-02-11T16:02:24;109.47;;;55.20;;
28958;SDS011;16066;0.000;0.000;2023-02-11T16:04:56;113.50;;;57.07;;
28958;SDS011;16066;0.000;0.000;2023-02-11T16:07:41;103.47;;;53.07;;
28958;SDS011;16066;0.000;0.000;2023-02-11T16:13:14;91.90;;;48.50;;
28958;SDS011;16066;0.000;0.000;2023-02-11T16:15:47;101.40;;;49.00;;
28958;SDS011;16066;0.000;0.000;2023-02-11T16:21:17;79.97;;;48.20;;
28958;SDS011;16066;0.000;0.000;2023-02-11T16:23:49;84.67;;;47.63;;
28958;SDS011;16066;0.000;0.000;2023-02-11T16:28:50;79.13;;;43.80;;
28958;SDS011;16066;0.000;0.000;2023-02-11T16:31:16;79.40;;;41.47;;
28958;SDS011;16066;0.000;0.000;2023-02-11T16:33:41;72.83;;;40.63;;
28958;SDS011;16066;0.000;0.000;2023-02-11T16:36:11;68.60;;;39.87;;
28958;SDS011;16066;0.000;0.000;2023-02-11T16:38:38;77.10;;;38.17;;
28958;SDS011;16066;0.000;0.000;2023-02-11T16:41:04;68.10;;;37.83;;
28958;SDS011;16066;0.000;0.000;2023-02-11T16:43:29;68.97;;;37.73;;
28958;SDS011;16066;0.000;0.000;2023-02-11T16:45:56;62.77;;;35.00;;
28958;SDS011;16066;0.000;0.000;2023-02-11T16:48:22;59.70;;;36.37;;
28958;SDS011;16066;0.000;0.000;2023-02-11T16:50:49;56.43;;;33.70;;
28958;SDS011;16066;0.000;0.000;2023-02-11T16:53:16;64.70;;;35.83;;
28958;SDS011;16066;0.000;0.000;2023-02-11T16:55:45;65.60;;;35.97;;
28958;SDS011;16066;0.000;0.000;2023-02-11T16:58:10;53.70;;;33.70;;
28958;SDS011;16066;0.000;0.000;2023-02-11T17:00:36;59.30;;;32.50;;
28958;SDS011;16066;0.000;0.000;2023-02-11T17:03:05;54.67;;;31.80;;
28958;SDS011;16066;0.000;0.000;2023-02-11T17:05:32;57.57;;;34.07;;
28958;SDS011;16066;0.000;0.000;2023-02-11T17:07:57;52.17;;;30.57;;
28958;SDS011;16066;0.000;0.000;2023-02-11T17:10:25;48.23;;;30.70;;
28958;SDS011;16066;0.000;0.000;2023-02-11T17:12:51;48.73;;;29.67;;